Bookmark and Share
Track history (hours):
 

Costa Luminosa

Last reported at 2014-Apr-16 21:34 UTC. Time now 2014-Apr-16 22:21 UTC.
Position N 43°04' E 006°47'.

Length 294 m; draft 8 m.

Type: Passenger vessel. MMSI: 247257900.

NotesDate/timePositionNaut miles runAvg speedWind from/ knotsBaromVisibWave heightAir tempDewpointWater temp
2014-Apr-16 21:34N 43°04' E 006°47'1515.1
2014-Apr-16 20:33N 42°56' E 006°29'1616.1
2014-Apr-16 19:34N 42°57' E 006°07'1615.6
2014-Apr-16 18:34N 43°01' E 005°47'1616.2
2014-Apr-16 17:34N 43°07' E 005°26'1313.1
2014-Apr-16 16:33N 43°17' E 005°15'5 4.9
2014-Apr-16 15:32N 43°21' E 005°20'0 0.0
2014-Apr-16 14:31N 43°21' E 005°20'0 0.0
2014-Apr-16 12:33N 43°21' E 005°20'0 0.0
2014-Apr-16 11:33N 43°21' E 005°20'0 0.0
2014-Apr-16 10:33N 43°21' E 005°20'0 0.0
2014-Apr-16 09:33N 43°21' E 005°20'6 5.6
2014-Apr-16 08:33N 43°18' E 005°13'1413.5
2014-Apr-16 07:34N 43°06' E 005°04'1615.3
2014-Apr-16 06:33N 42°55' E 004°49'7114.3
2014-Apr-16 01:32N 42°05' E 003°40'1211.5
2014-Apr-16 00:32N 41°56' E 003°31'1312.8
2014-Apr-15 23:33N 41°48' E 003°17'1313.0
2014-Apr-15 22:31N 41°41' E 003°02'1313.5
2014-Apr-15 21:33N 41°33' E 002°48'1413.5
2014-Apr-15 20:32N 41°25' E 002°33'1313.2
2014-Apr-15 19:32N 41°18' E 002°19'7 7.1
2014-Apr-15 18:33N 41°21' E 002°10'3 0.3
2014-Apr-15 09:33N 41°18' E 002°11'9 9.6
2014-Apr-15 08:34N 41°18' E 002°23'3718.2
2014-Apr-15 06:33N 41°35' E 003°07'9218.2
2014-Apr-15 01:29N 42°18' E 004°56'1819.6
2014-Apr-15 00:33N 42°26' E 005°18'1717.3
2014-Apr-14 23:34N 42°34' E 005°39'1717.2
2014-Apr-14 22:34N 42°42' E 005°59'1717.2
2014-Apr-14 21:34N 42°51' E 006°20'1717.4
2014-Apr-14 20:34N 43°02' E 006°38'3617.8
2014-Apr-14 18:32N 43°22' E 007°20'1818.1
2014-Apr-14 17:34N 43°32' E 007°39'5914.6
2014-Apr-14 13:32N 44°19' E 008°29'0 0.0
2014-Apr-14 11:31N 44°19' E 008°29'0 0.0
2014-Apr-14 10:31N 44°19' E 008°29'0 0.0
2014-Apr-14 09:30N 44°19' E 008°29'0 0.0
2014-Apr-14 08:30N 44°19' E 008°29'0 0.0
2014-Apr-14 07:33N 44°19' E 008°29'0 0.0
2014-Apr-14 06:30N 44°19' E 008°29'0 0.0
2014-Apr-14 05:32N 44°19' E 008°29'8812.6
2014-Apr-13 22:33N 43°14' E 007°06'1313.4
2014-Apr-13 21:33N 43°06' E 006°52'4914.7
2014-Apr-13 18:12N 43°02' E 005°45'1116.6
2014-Apr-13 17:34N 43°06' E 005°31'1515.0
2014-Apr-13 16:33N 43°15' E 005°15'6 6.3
2014-Apr-13 15:32N 43°21' E 005°20'0 0.0
2014-Apr-13 14:31N 43°21' E 005°20'0 0.0
2014-Apr-13 13:16N 43°21' E 005°20'0 0.0
2014-Apr-13 12:33N 43°21' E 005°20'0 0.0
2014-Apr-13 11:33N 43°21' E 005°20'0 0.0
2014-Apr-13 10:33N 43°21' E 005°20'6 6.0
2014-Apr-13 09:33N 43°17' E 005°13'1110.9
2014-Apr-13 08:33N 43°08' E 005°07'1212.1
2014-Apr-13 07:33N 42°58' E 004°56'1412.4
2014-Apr-13 06:27N 42°47' E 004°45'5113.2
2014-Apr-13 02:33N 42°07' E 004°02'1413.8
2014-Apr-13 01:33N 41°56' E 003°50'1413.9
2014-Apr-13 00:32N 41°45' E 003°38'1313.1
2014-Apr-12 23:31N 41°35' E 003°27'2613.1
2014-Apr-12 21:33N 41°15' E 003°06'1312.8
2014-Apr-12 20:32N 41°05' E 002°55'1313.3
2014-Apr-12 19:33N 40°54' E 002°44'1312.8
2014-Apr-12 18:33N 40°44' E 002°34'1313.1
2014-Apr-12 17:33N 40°34' E 002°23'1312.9
2014-Apr-12 16:33N 40°24' E 002°13'1312.5
2014-Apr-12 15:33N 40°14' E 002°03'1313.2
2014-Apr-12 14:33N 40°04' E 001°52'1211.8
2014-Apr-12 13:33N 39°54' E 001°42'1211.9
2014-Apr-12 12:33N 39°45' E 001°33'1812.5
2014-Apr-12 11:09N 39°31' E 001°18'812.7
2014-Apr-12 10:30N 39°25' E 001°12'1213.0
2014-Apr-12 09:33N 39°15' E 001°02'1613.6
2014-Apr-12 08:23N 39°03' E 000°49'7415.2
2014-Apr-12 03:33N 38°02' W 000°04'1615.7
2014-Apr-12 02:33N 37°50' W 000°17'1616.4
2014-Apr-12 01:33N 37°36' W 000°27'243 9.7
2014-Apr-11 00:34N 36°06' W 005°10'1211.6
2014-Apr-10 23:34N 35°60' W 005°21'1614.6
2014-Apr-10 22:28N 35°55' W 005°40'1314.6
2014-Apr-10 21:33N 35°54' W 005°57'1714.6
2014-Apr-10 20:25N 35°54' W 006°17'1514.3
2014-Apr-10 19:22N 36°08' W 006°23'1214.9
2014-Apr-10 18:32N 36°20' W 006°25'1313.0
2014-Apr-10 17:34N 36°33' W 006°22'5 0.4
2014-Apr-10 06:19N 36°33' W 006°17'1012.5
2014-Apr-10 05:30N 36°31' W 006°29'1918.0
2014-Apr-10 04:25N 36°19' W 006°48'3517.9
2014-Apr-10 02:30N 35°53' W 007°17'1718.2
2014-Apr-10 01:34N 35°42' W 007°33'1918.3
2014-Apr-10 00:33N 35°29' W 007°49'1818.4
2014-Apr-09 23:34N 35°16' W 008°05'1918.1
2014-Apr-09 22:32N 35°03' W 008°21'2718.2
2014-Apr-09 21:04N 34°44' W 008°44'917.9
2014-Apr-09 20:33N 34°38' W 008°52'1817.9
2014-Apr-09 19:33N 34°25' W 009°07'1817.8
2014-Apr-09 18:33N 34°13' W 009°23'  

Dump ship's entire track history

sailing weather and tide predictions

Costa Luminosa — ICGU — position and weather